Time;durP1;ratioP1;P1;durP2;ratioP2;P2;SDS_P1;SDS_P2;PMS_P1;PMS_P2;Temp;Humidity;BMP_temperature;BMP_pressure;BME280_temperature;BME280_humidity;BME280_pressure;Samples;Min_cycle;Max_cycle;Signal;HPM_P1;HPM_P2
2023/10/15 00:01:53;;;;;;;2.03;0.43;;;;;;;-143.29;100.00;62188.47;5015010;28;20022;-90
2023/10/15 00:04:19;;;;;;;1.13;0.30;;;;;;;-143.29;100.00;62188.47;5033073;28;20471;-91
2023/10/15 00:06:44;;;;;;;1.92;0.47;;;;;;;-143.29;100.00;62188.47;5015171;28;20034;-90
2023/10/15 00:09:10;;;;;;;1.80;0.60;;;;;;;-143.29;100.00;62188.47;5032424;28;20464;-90
2023/10/15 00:11:36;;;;;;;3.65;0.40;;;;;;;-143.29;100.00;62188.47;5032735;28;20032;-90
2023/10/15 00:14:03;;;;;;;1.88;0.75;;;;;;;-143.29;100.00;62188.47;5013765;28;20090;-90
2023/10/15 00:16:29;;;;;;;2.75;0.40;;;;;;;-143.29;100.00;62188.47;5014234;28;20025;-90
2023/10/15 00:18:54;;;;;;;3.20;0.55;;;;;;;-143.29;100.00;62188.47;5014711;28;20036;-89
2023/10/15 00:21:20;;;;;;;4.50;0.60;;;;;;;-143.29;100.00;62188.47;5032278;28;20077;-91
2023/10/15 00:23:47;;;;;;;4.10;0.77;;;;;;;-143.29;100.00;62188.47;5031684;28;20041;-90
2023/10/15 00:26:14;;;;;;;2.42;0.88;;;;;;;-143.29;100.00;62188.47;5031546;28;20053;-91
2023/10/15 00:28:39;;;;;;;1.77;0.47;;;;;;;-143.29;100.00;62188.47;5014438;28;20411;-90
2023/10/15 00:31:09;;;;;;;2.08;0.52;;;;;;;-143.29;100.00;62188.47;5014459;28;20030;-89
2023/10/15 00:33:36;;;;;;;2.33;0.65;;;;;;;-143.29;100.00;62188.47;5032424;28;20037;-90
2023/10/15 00:36:01;;;;;;;2.90;0.88;;;;;;;-143.29;100.00;62188.47;5032057;28;20022;-90
2023/10/15 00:38:26;;;;;;;3.50;0.68;;;;;;;-143.29;100.00;62188.47;5014261;28;20028;-90
2023/10/15 00:41:07;;;;;;;2.22;0.80;;;;;;;-143.29;100.00;62188.47;5032243;28;20167;-91
2023/10/15 00:43:32;;;;;;;3.25;0.75;;;;;;;-143.29;100.00;62188.47;5014098;28;20534;-90
2023/10/15 00:46:00;;;;;;;5.55;0.88;;;;;;;-143.29;100.00;62188.47;5031914;28;20056;-90
2023/10/15 00:48:33;;;;;;;1.65;0.75;;;;;;;-143.29;100.00;62188.47;5031923;28;20100;-90
2023/10/15 00:51:08;;;;;;;1.25;0.57;;;;;;;-143.29;100.00;62188.47;5031660;28;20113;-90
2023/10/15 00:53:34;;;;;;;3.50;1.00;;;;;;;-143.29;100.00;62188.47;5014487;28;20025;-90
2023/10/15 00:56:04;;;;;;;4.28;0.88;;;;;;;-143.29;100.00;62188.47;5031834;28;20026;-90
2023/10/15 01:03:48;;;;;;;4.13;1.05;;;;;;;-143.29;100.00;62188.47;5031841;28;20369;-90
2023/10/15 01:06:37;;;;;;;1.35;0.77;;;;;;;-143.29;100.00;62188.47;5014080;28;20116;-90
2023/10/15 01:09:10;;;;;;;2.90;0.80;;;;;;;-143.29;100.00;62188.47;5013031;28;20033;-90
2023/10/15 01:11:37;;;;;;;2.25;1.00;;;;;;;-143.29;100.00;62188.47;4994445;28;20026;-90
2023/10/15 01:14:03;;;;;;;2.15;0.80;;;;;;;-143.29;100.00;62188.47;5010652;28;20125;-90
2023/10/15 01:16:36;;;;;;;3.25;0.95;;;;;;;-143.29;100.00;62188.47;4994280;28;20108;-91
2023/10/15 01:21:43;;;;;;;6.55;1.65;;;;;;;-143.29;100.00;62188.47;5031093;28;20108;-90
2023/10/15 01:24:08;;;;;;;2.10;0.70;;;;;;;-143.29;100.00;62188.47;5013416;28;20384;-90
2023/10/15 01:26:36;;;;;;;3.20;1.08;;;;;;;-143.29;100.00;62188.47;5031174;28;20036;-90
2023/10/15 01:29:05;;;;;;;3.92;0.65;;;;;;;-143.29;100.00;62188.47;5031714;28;20368;-90
2023/10/15 01:31:38;;;;;;;4.70;1.05;;;;;;;-143.29;100.00;62188.47;5030511;28;20029;-90
2023/10/15 01:34:04;;;;;;;1.77;0.73;;;;;;;-143.29;100.00;62188.47;5003685;28;20448;-90
2023/10/15 01:36:30;;;;;;;2.10;0.88;;;;;;;-143.29;100.00;62188.47;5031390;28;20104;-90
2023/10/15 01:38:58;;;;;;;3.40;0.90;;;;;;;-143.29;100.00;62188.47;5033203;28;20113;-92
2023/10/15 01:41:25;;;;;;;2.42;1.00;;;;;;;-143.29;100.00;62188.47;5016585;28;20507;-91
2023/10/15 01:43:53;;;;;;;3.85;0.70;;;;;;;-143.29;100.00;62188.47;5034404;28;20033;-93
2023/10/15 01:46:44;;;;;;;4.50;0.85;;;;;;;-143.29;100.00;62188.47;5034792;28;20475;-92
2023/10/15 01:49:09;;;;;;;1.60;0.70;;;;;;;-143.29;100.00;62188.47;5017109;28;20028;-92
2023/10/15 01:51:40;;;;;;;3.97;0.82;;;;;;;-143.29;100.00;62188.47;5017292;28;20120;-92
2023/10/15 01:54:12;;;;;;;1.77;0.52;;;;;;;-143.29;100.00;62188.47;5017131;28;20086;-90
2023/10/15 01:56:37;;;;;;;;;;;;;;;-143.29;100.00;62188.47;5035516;28;20376;-91
2023/10/15 01:59:08;;;;;;;4.10;0.65;;;;;;;-143.29;100.00;62188.47;5017124;28;19913;-92
2023/10/15 02:01:37;;;;;;;2.58;0.80;;;;;;;-143.29;100.00;62188.47;5034902;28;20018;-92
2023/10/15 02:04:05;;;;;;;2.40;0.80;;;;;;;-143.29;100.00;62188.47;5034917;28;20096;-92
2023/10/15 02:06:42;;;;;;;2.92;0.90;;;;;;;-143.29;100.00;62188.47;5027615;28;20060;-90
2023/10/15 02:09:11;;;;;;;3.88;0.90;;;;;;;-143.29;100.00;62188.47;4997356;28;20133;-92
2023/10/15 02:11:43;;;;;;;3.83;0.70;;;;;;;-143.29;100.00;62188.47;5015106;28;20125;-92
2023/10/15 02:14:09;;;;;;;4.05;0.90;;;;;;;-143.29;100.00;62188.47;5014783;28;20022;-92
2023/10/15 02:16:37;;;;;;;2.30;0.70;;;;;;;-143.29;100.00;62188.47;5015030;28;20029;-92
2023/10/15 02:19:07;;;;;;;3.78;0.90;;;;;;;-143.29;100.00;62188.47;5014894;28;20109;-92
2023/10/15 02:21:33;;;;;;;2.80;0.65;;;;;;;-143.29;100.00;62188.47;4997322;28;20022;-90
2023/10/15 02:24:08;;;;;;;3.72;0.70;;;;;;;-143.29;100.00;62188.47;4997079;28;20029;-92
2023/10/15 02:26:35;;;;;;;4.70;0.80;;;;;;;-143.29;100.00;62188.47;5014637;28;20387;-92
2023/10/15 02:29:07;;;;;;;1.80;0.57;;;;;;;-143.29;100.00;62188.47;4997120;28;20165;-93
2023/10/15 02:31:41;;;;;;;4.38;0.77;;;;;;;-143.29;100.00;62188.47;5014570;28;20472;-92
2023/10/15 02:34:06;;;;;;;4.10;0.95;;;;;;;-143.29;100.00;62188.47;4997034;28;20030;-92
2023/10/15 02:36:32;;;;;;;1.55;0.70;;;;;;;-143.29;100.00;62188.47;5014738;28;20165;-92
2023/10/15 02:38:58;;;;;;;3.90;0.57;;;;;;;-143.29;100.00;62188.47;5014628;28;20105;-90
2023/10/15 02:41:31;;;;;;;2.67;1.00;;;;;;;-143.29;100.00;62188.47;4997964;28;20034;-92
2023/10/15 02:43:56;;;;;;;2.08;0.90;;;;;;;-143.29;100.00;62188.47;5011621;28;20033;-91
2023/10/15 02:46:23;;;;;;;3.47;0.93;;;;;;;-143.29;100.00;62188.47;5016349;28;20033;-92
2023/10/15 02:48:55;;;;;;;4.38;1.00;;;;;;;-143.29;100.00;62188.47;5016225;28;20025;-92
2023/10/15 02:51:23;;;;;;;;;;;;;;;-143.29;100.00;62188.47;5016839;28;20048;-92
2023/10/15 02:53:54;;;;;;;2.25;0.60;;;;;;;-143.29;100.00;62188.47;5016174;28;19909;-92
2023/10/15 02:56:21;;;;;;;2.17;0.52;;;;;;;-143.29;100.00;62188.47;5016132;28;20449;-92
2023/10/15 02:58:46;;;;;;;4.45;0.80;;;;;;;-143.29;100.00;62188.47;5015961;28;20026;-92
2023/10/15 03:01:23;;;;;;;2.63;0.80;;;;;;;-143.29;100.00;62188.47;5033817;28;20038;-92
2023/10/15 03:03:53;;;;;;;2.78;0.80;;;;;;;-143.29;100.00;62188.47;5015397;28;20025;-92
2023/10/15 03:06:25;;;;;;;4.35;0.98;;;;;;;-143.29;100.00;62188.47;5015594;28;20118;-92
2023/10/15 03:08:51;;;;;;;5.93;0.85;;;;;;;-143.29;100.00;62188.47;5033588;28;20083;-92
2023/10/15 03:11:20;;;;;;;2.38;0.50;;;;;;;-143.29;100.00;62188.47;5027906;28;20018;-92
2023/10/15 03:16:18;;;;;;;3.20;0.65;;;;;;;-143.29;100.00;62188.47;5033639;28;20022;-92
2023/10/15 03:18:48;;;;;;;2.40;0.80;;;;;;;-143.29;100.00;62188.47;5015732;28;20026;-89
2023/10/15 03:21:16;;;;;;;5.80;0.80;;;;;;;-143.29;100.00;62188.47;5033099;28;20474;-92
2023/10/15 03:23:42;;;;;;;4.07;0.82;;;;;;;-143.29;100.00;62188.47;5033490;28;20053;-91
2023/10/15 03:26:10;;;;;;;3.60;0.82;;;;;;;-143.29;100.00;62188.47;5015489;28;20033;-92
2023/10/15 03:28:44;;;;;;;2.05;0.65;;;;;;;-143.29;100.00;62188.47;5015480;28;20506;-92
2023/10/15 03:31:09;;;;;;;6.10;0.98;;;;;;;-143.29;100.00;62188.47;5033327;28;20231;-92
2023/10/15 03:33:35;;;;;;;10.02;1.02;;;;;;;-143.29;100.00;62188.47;5015385;28;20263;-92
2023/10/15 03:36:03;;;;;;;2.58;0.75;;;;;;;-143.29;100.00;62188.47;5033243;28;20101;-91
2023/10/15 03:38:34;;;;;;;3.63;0.75;;;;;;;-143.29;100.00;62188.47;5033472;28;20032;-93
2023/10/15 03:41:21;;;;;;;3.13;0.65;;;;;;;-143.29;100.00;62188.47;5032912;28;20108;-92
2023/10/15 03:43:47;;;;;;;3.95;0.90;;;;;;;-143.29;100.00;62188.47;5014826;28;20475;-89
2023/10/15 03:46:19;;;;;;;1.88;0.77;;;;;;;-143.29;100.00;62188.47;5032600;28;20033;-90
2023/10/15 03:48:50;;;;;;;1.55;0.57;;;;;;;-143.29;100.00;62188.47;5032593;28;20017;-92
2023/10/15 03:51:20;;;;;;;3.55;0.85;;;;;;;-143.29;100.00;62188.47;5032584;28;20395;-92
2023/10/15 03:53:49;;;;;;;3.38;0.60;;;;;;;-143.29;100.00;62188.47;5031405;28;20396;-92
2023/10/15 03:56:17;;;;;;;1.73;0.85;;;;;;;-143.29;100.00;62188.47;5032660;28;20022;-93
2023/10/15 03:58:43;;;;;;;4.00;0.65;;;;;;;-143.29;100.00;62188.47;5014748;28;20537;-91
2023/10/15 04:03:43;;;;;;;1.98;0.75;;;;;;;-143.29;100.00;62188.47;5031362;28;20037;-90
2023/10/15 04:06:13;;;;;;;4.10;0.73;;;;;;;-143.29;100.00;62188.47;5032283;28;20032;-90
2023/10/15 04:08:38;;;;;;;6.53;0.60;;;;;;;-143.29;100.00;62188.47;5032245;28;20028;-92
2023/10/15 04:11:04;;;;;;;4.82;0.60;;;;;;;-143.29;100.00;62188.47;5032550;28;20402;-92
2023/10/15 04:13:29;;;;;;;4.70;1.13;;;;;;;-143.29;100.00;62188.47;5032178;28;20503;-92
2023/10/15 04:15:56;;;;;;;1.92;0.70;;;;;;;-143.29;100.00;62188.47;5032054;28;20125;-91
2023/10/15 04:18:25;;;;;;;6.13;0.68;;;;;;;-143.29;100.00;62188.47;5012750;28;20113;-92
2023/10/15 04:20:56;;;;;;;3.45;0.68;;;;;;;-143.29;100.00;62188.47;5017326;28;20022;-90
2023/10/15 04:23:31;;;;;;;5.15;0.60;;;;;;;-143.29;100.00;62188.47;5031972;28;20165;-89
2023/10/15 04:26:14;;;;;;;0.70;0.40;;;;;;;-143.29;100.00;62188.47;5014572;28;20029;-92
2023/10/15 04:28:40;;;;;;;4.60;0.60;;;;;;;-143.29;100.00;62188.47;5013641;28;20037;-89
2023/10/15 04:31:11;;;;;;;4.30;0.50;;;;;;;-143.29;100.00;62188.47;4997208;28;20017;-90
2023/10/15 04:33:41;;;;;;;1.98;0.57;;;;;;;-143.29;100.00;62188.47;5031975;28;20022;-92
2023/10/15 04:36:09;;;;;;;1.25;0.40;;;;;;;-143.29;100.00;62188.47;5014106;28;20026;-92
2023/10/15 04:38:35;;;;;;;1.27;0.30;;;;;;;-143.29;100.00;62188.47;5031735;28;20480;-92
2023/10/15 04:41:03;;;;;;;2.47;0.55;;;;;;;-143.29;100.00;62188.47;5014425;28;20032;-92
2023/10/15 04:43:29;;;;;;;2.58;0.55;;;;;;;-143.29;100.00;62188.47;5014399;28;20384;-92
2023/10/15 04:45:56;;;;;;;1.02;0.40;;;;;;;-143.29;100.00;62188.47;5031773;28;20025;-89
2023/10/15 04:48:41;;;;;;;1.60;0.47;;;;;;;-143.29;100.00;62188.47;5013713;28;20037;-89
2023/10/15 04:51:12;;;;;;;1.27;0.60;;;;;;;-143.29;100.00;62188.47;5031906;28;20026;-92
2023/10/15 04:53:44;;;;;;;2.30;0.50;;;;;;;-143.29;100.00;62188.47;5013918;28;20438;-92
2023/10/15 04:56:11;;;;;;;1.10;0.70;;;;;;;-143.29;100.00;62188.47;5013896;28;20111;-90
2023/10/15 04:58:37;;;;;;;4.95;1.20;;;;;;;-143.29;100.00;62188.47;5031750;28;20022;-92
2023/10/15 05:01:04;;;;;;;2.30;0.90;;;;;;;-143.29;100.00;62188.47;5031411;28;20132;-92
2023/10/15 05:03:31;;;;;;;2.55;0.93;;;;;;;-143.29;100.00;62188.47;5031362;28;20052;-92
2023/10/15 05:06:06;;;;;;;2.47;0.70;;;;;;;-143.29;100.00;62188.47;5014098;28;20438;-91
2023/10/15 05:08:32;;;;;;;1.67;0.80;;;;;;;-143.29;100.00;62188.47;5013992;28;20036;-93
2023/10/15 05:10:57;;;;;;;5.45;1.00;;;;;;;-143.29;100.00;62188.47;5031366;28;20029;-91
2023/10/15 05:13:26;;;;;;;6.32;1.67;;;;;;;-143.29;100.00;62188.47;5030448;28;20087;-91
2023/10/15 05:15:51;;;;;;;1.88;0.90;;;;;;;-143.29;100.00;62188.47;5031560;28;20017;-91
2023/10/15 05:18:20;;;;;;;2.55;1.00;;;;;;;-143.29;100.00;62188.47;5013941;28;20506;-91
2023/10/15 05:20:50;;;;;;;5.13;0.98;;;;;;;-143.29;100.00;62188.47;5013816;28;20099;-91
2023/10/15 05:23:17;;;;;;;2.30;0.82;;;;;;;-143.29;100.00;62188.47;5031449;28;20036;-92
2023/10/15 05:25:44;;;;;;;7.35;0.93;;;;;;;-143.29;100.00;62188.47;5031002;28;20045;-91
2023/10/15 05:28:14;;;;;;;1.98;0.80;;;;;;;-143.29;100.00;62188.47;5014081;28;20029;-91
2023/10/15 05:30:40;;;;;;;1.60;0.68;;;;;;;-143.29;100.00;62188.47;5031439;28;20032;-92
2023/10/15 05:33:07;;;;;;;5.35;0.88;;;;;;;-143.29;100.00;62188.47;5013791;28;20029;-90
2023/10/15 05:35:34;;;;;;;2.55;0.50;;;;;;;-143.29;100.00;62188.47;5013837;28;20079;-92
2023/10/15 05:38:00;;;;;;;1.15;0.55;;;;;;;-143.29;100.00;62188.47;5030794;28;20030;-91
2023/10/15 05:40:26;;;;;;;2.17;0.47;;;;;;;-143.29;100.00;62188.47;5030878;28;20026;-91
2023/10/15 05:42:51;;;;;;;3.83;0.30;;;;;;;-143.29;100.00;62188.47;5031208;28;20026;-91
2023/10/15 05:45:18;;;;;;;1.10;0.40;;;;;;;-143.29;100.00;62188.47;5013857;28;20033;-91
2023/10/15 05:47:43;;;;;;;3.45;0.60;;;;;;;-143.29;100.00;62188.47;5031126;28;20045;-91
2023/10/15 05:50:09;;;;;;;5.20;0.77;;;;;;;-143.29;100.00;62188.47;5031038;28;20105;-91
2023/10/15 05:52:34;;;;;;;3.67;0.60;;;;;;;-143.29;100.00;62188.47;5025767;28;20025;-91
2023/10/15 05:55:00;;;;;;;3.03;0.68;;;;;;;-143.29;100.00;62188.47;5030754;28;20029;-91
2023/10/15 05:57:26;;;;;;;1.10;0.57;;;;;;;-143.29;100.00;62188.47;5031324;28;20025;-91
2023/10/15 05:59:54;;;;;;;2.90;0.77;;;;;;;-143.29;100.00;62188.47;5013228;28;20025;-91
2023/10/15 06:02:20;;;;;;;4.18;1.45;;;;;;;-143.29;100.00;62188.47;5029160;28;20029;-91
2023/10/15 06:04:47;;;;;;;2.65;0.60;;;;;;;-143.29;100.00;62188.47;5030923;28;20039;-91
2023/10/15 06:07:15;;;;;;;1.60;0.68;;;;;;;-143.29;100.00;62188.47;5030590;28;20033;-92
2023/10/15 06:09:44;;;;;;;1.60;0.52;;;;;;;-143.29;100.00;62188.47;5030884;28;20034;-91
2023/10/15 06:12:10;;;;;;;2.22;0.55;;;;;;;-143.29;100.00;62188.47;5030886;28;20049;-91
2023/10/15 06:14:36;;;;;;;4.70;1.52;;;;;;;-143.29;100.00;62188.47;5012980;28;20025;-91
2023/10/15 06:17:01;;;;;;;3.50;0.75;;;;;;;-143.29;100.00;62188.47;5030355;28;20025;-91
2023/10/15 06:19:29;;;;;;;2.38;0.70;;;;;;;-143.29;100.00;62188.47;5012973;28;20030;-91
2023/10/15 06:21:55;;;;;;;1.80;0.70;;;;;;;-143.29;100.00;62188.47;5012665;28;20037;-91
2023/10/15 06:24:20;;;;;;;0.77;0.50;;;;;;;-143.29;100.00;62188.47;5013716;28;20044;-90
2023/10/15 06:26:46;;;;;;;2.15;0.80;;;;;;;-143.29;100.00;62188.47;5034116;28;20108;-91
2023/10/15 06:29:13;;;;;;;4.78;1.00;;;;;;;-143.29;100.00;62188.47;5012733;28;20034;-92
2023/10/15 06:31:39;;;;;;;7.90;0.90;;;;;;;-143.29;100.00;62188.47;5026216;28;20372;-91
2023/10/15 06:34:06;;;;;;;1.75;1.08;;;;;;;-143.29;100.00;62188.47;5034089;28;20091;-91
2023/10/15 06:36:32;;;;;;;1.48;0.95;;;;;;;-143.29;100.00;62188.47;5033960;28;20472;-91
2023/10/15 06:38:57;;;;;;;2.00;0.88;;;;;;;-143.29;100.00;62188.47;5033767;28;20041;-91
2023/10/15 06:41:24;;;;;;;2.05;0.95;;;;;;;-143.29;100.00;62188.47;5030338;28;20026;-90
2023/10/15 06:43:50;;;;;;;1.85;0.70;;;;;;;-143.29;100.00;62188.47;5033554;28;20040;-91
2023/10/15 06:46:16;;;;;;;2.13;1.17;;;;;;;-143.29;100.00;62188.47;5025879;28;20399;-91
2023/10/15 06:48:41;;;;;;;4.18;1.20;;;;;;;-143.29;100.00;62188.47;5020650;28;20049;-91
2023/10/15 06:51:07;;;;;;;3.70;1.10;;;;;;;-143.29;100.00;62188.47;5033549;28;20025;-91
2023/10/15 06:53:33;;;;;;;2.33;0.60;;;;;;;-143.29;100.00;62188.47;5015607;28;20048;-90
2023/10/15 06:55:58;;;;;;;1.55;0.88;;;;;;;-143.29;100.00;62188.47;5033462;28;20519;-91
2023/10/15 06:58:25;;;;;;;3.20;1.80;;;;;;;-143.29;100.00;62188.47;5031991;28;20168;-91
2023/10/15 07:00:54;;;;;;;1.73;0.88;;;;;;;-143.29;100.00;62188.47;5033855;28;20101;-91
2023/10/15 07:03:20;;;;;;;3.38;0.93;;;;;;;-143.29;100.00;62188.47;5015199;28;20116;-91
2023/10/15 07:05:45;;;;;;;2.38;0.68;;;;;;;-143.29;100.00;62188.47;5015926;28;20120;-91
2023/10/15 07:08:11;;;;;;;4.65;0.50;;;;;;;-143.29;100.00;62188.47;5033814;28;20124;-91
2023/10/15 07:10:37;;;;;;;6.47;1.00;;;;;;;-143.29;100.00;62188.47;5033920;28;20037;-91
2023/10/15 07:13:03;;;;;;;2.08;0.70;;;;;;;-143.29;100.00;62188.47;5033106;28;20077;-91
2023/10/15 07:15:29;;;;;;;1.98;0.80;;;;;;;-143.29;100.00;62188.47;5033524;28;20124;-92
2023/10/15 07:17:55;;;;;;;2.42;1.00;;;;;;;-143.29;100.00;62188.47;5033661;28;20079;-91
2023/10/15 07:20:21;;;;;;;4.05;0.70;;;;;;;-143.29;100.00;62188.47;5033196;28;20167;-92
2023/10/15 07:22:49;;;;;;;2.90;1.15;;;;;;;-143.29;100.00;62188.47;5013752;28;20052;-91
2023/10/15 07:25:16;;;;;;;4.40;1.15;;;;;;;-143.29;100.00;62188.47;5031529;28;20111;-91
2023/10/15 07:27:45;;;;;;;2.53;1.20;;;;;;;-143.29;100.00;62188.47;5028031;28;20021;-92
2023/10/15 07:30:14;;;;;;;5.75;1.88;;;;;;;-143.29;100.00;62188.47;5027034;28;20029;-91
2023/10/15 07:32:42;;;;;;;10.05;2.53;;;;;;;-143.29;100.00;62188.47;5032230;28;20036;-92
2023/10/15 07:35:11;;;;;;;5.85;3.05;;;;;;;-143.29;100.00;62188.47;5013765;28;20526;-92
2023/10/15 07:37:44;;;;;;;9.02;3.60;;;;;;;-143.29;100.00;62188.47;5014792;28;20475;-92
2023/10/15 07:40:17;;;;;;;8.50;3.50;;;;;;;-143.29;100.00;62188.47;5013680;28;20472;-93
2023/10/15 07:42:50;;;;;;;6.70;3.17;;;;;;;-143.29;100.00;62188.47;5032240;28;20135;-91
2023/10/15 07:45:16;;;;;;;4.72;2.67;;;;;;;-143.29;100.00;62188.47;5031996;28;20037;-92
2023/10/15 07:47:42;;;;;;;6.30;2.67;;;;;;;-143.29;100.00;62188.47;5030562;28;20025;-91
2023/10/15 07:50:09;;;;;;;6.55;2.28;;;;;;;-143.29;100.00;62188.47;5014156;28;20040;-92
2023/10/15 07:52:35;;;;;;;5.68;2.15;;;;;;;-143.29;100.00;62188.47;5031743;28;20091;-91
2023/10/15 07:55:01;;;;;;;7.05;1.80;;;;;;;-143.29;100.00;62188.47;5031963;28;20025;-91
2023/10/15 07:57:27;;;;;;;3.13;1.65;;;;;;;-143.29;100.00;62188.47;5032212;28;20025;-91
2023/10/15 07:59:55;;;;;;;3.97;1.70;;;;;;;-143.29;100.00;62188.47;5025292;28;20049;-92
2023/10/15 08:02:23;;;;;;;4.10;2.25;;;;;;;-143.29;100.00;62188.47;5030539;28;20025;-91
2023/10/15 08:04:53;;;;;;;4.35;1.90;;;;;;;-143.29;100.00;62188.47;5028314;28;20036;-93
2023/10/15 08:07:19;;;;;;;6.75;1.45;;;;;;;-143.29;100.00;62188.47;5028924;28;20526;-92
2023/10/15 08:09:44;;;;;;;4.93;1.60;;;;;;;-143.29;100.00;62188.47;5032040;28;20035;-92
2023/10/15 08:12:11;;;;;;;4.93;1.95;;;;;;;-143.29;100.00;62188.47;5030862;28;20105;-91
2023/10/15 08:14:37;;;;;;;2.97;1.50;;;;;;;-143.29;100.00;62188.47;5013110;28;20053;-91
2023/10/15 08:17:02;;;;;;;4.45;1.90;;;;;;;-143.29;100.00;62188.47;5029540;28;20077;-91
2023/10/15 08:19:28;;;;;;;5.68;1.92;;;;;;;-143.29;100.00;62188.47;5030896;28;20029;-92
2023/10/15 08:21:53;;;;;;;4.28;1.65;;;;;;;-143.29;100.00;62188.47;5030850;28;20029;-91
2023/10/15 08:24:19;;;;;;;4.75;1.80;;;;;;;-143.29;100.00;62188.47;5025939;28;20379;-92
2023/10/15 08:26:45;;;;;;;3.40;1.85;;;;;;;-143.29;100.00;62188.47;5031110;28;20025;-91
2023/10/15 08:29:10;;;;;;;3.35;1.65;;;;;;;-143.29;100.00;62188.47;5012981;28;20033;-91
2023/10/15 08:31:36;;;;;;;2.85;1.30;;;;;;;-143.29;100.00;62188.47;5029754;28;20021;-95
2023/10/15 08:34:02;;;;;;;2.40;1.42;;;;;;;-143.29;100.00;62188.47;5029990;28;20040;-91
2023/10/15 08:36:27;;;;;;;3.15;1.25;;;;;;;-143.29;100.00;62188.47;5031030;28;20602;-90
2023/10/15 08:38:53;;;;;;;2.83;1.20;;;;;;;-143.29;100.00;62188.47;5031175;28;20032;-91
2023/10/15 08:41:21;;;;;;;6.32;1.60;;;;;;;-143.29;100.00;62188.47;5027537;28;20100;-91
2023/10/15 08:43:50;;;;;;;3.70;1.50;;;;;;;-143.29;100.00;62188.47;5031022;28;20776;-93
2023/10/15 08:46:22;;;;;;;3.95;1.55;;;;;;;-143.29;100.00;62188.47;5034481;28;20029;-93
2023/10/15 08:48:48;;;;;;;;;;;;;;;-143.29;100.00;62188.47;5017623;28;20136;-95
2023/10/15 08:51:20;;;;;;;3.75;1.23;;;;;;;-143.29;100.00;62188.47;5030033;28;19999;-96
2023/10/15 08:53:49;;;;;;;2.38;1.00;;;;;;;-143.29;100.00;62188.47;5037472;28;20030;-94
2023/10/15 08:56:21;;;;;;;5.15;1.42;;;;;;;-143.29;100.00;62188.47;5033979;28;20022;-96
2023/10/15 09:01:23;;;;;;;2.35;0.85;;;;;;;-143.29;100.00;62188.47;5795443;22;21398;-96
2023/10/15 09:03:52;;;;;;;5.80;1.20;;;;;;;-143.29;100.00;62188.47;5068059;28;20025;-96
2023/10/15 09:06:18;;;;;;;0.82;0.50;;;;;;;-143.29;100.00;62188.47;5072898;28;20029;-96
2023/10/15 09:08:44;;;;;;;2.65;0.65;;;;;;;-143.29;100.00;62188.47;5072114;28;20024;-96
2023/10/15 09:11:12;;;;;;;2.42;0.60;;;;;;;-143.29;100.00;62188.47;5070530;28;20102;-94
2023/10/15 09:13:38;;;;;;;3.20;0.68;;;;;;;-143.29;100.00;62188.47;5071220;28;20017;-92
2023/10/15 09:16:04;;;;;;;4.53;0.38;;;;;;;-143.29;100.00;62188.47;5069436;28;20493;-93
2023/10/15 09:18:35;;;;;;;3.45;0.30;;;;;;;-143.29;100.00;62188.47;5069769;28;20028;-94
2023/10/15 09:21:03;;;;;;;3.05;0.57;;;;;;;-143.29;100.00;62188.47;5068925;28;20052;-95
2023/10/15 09:23:31;;;;;;;2.40;0.73;;;;;;;-143.29;100.00;62188.47;5069622;28;20017;-95
2023/10/15 09:25:57;;;;;;;7.03;1.42;;;;;;;-143.29;100.00;62188.47;5069580;28;20024;-95
2023/10/15 09:28:27;;;;;;;1.90;0.40;;;;;;;-143.29;100.00;62188.47;5073511;28;20064;-93
2023/10/15 09:31:09;;;;;;;7.20;0.73;;;;;;;-143.29;100.00;62188.47;5068435;28;20479;-92
2023/10/15 09:33:35;;;;;;;5.53;0.65;;;;;;;-143.29;100.00;62188.47;5070492;28;20028;-92
2023/10/15 09:36:03;;;;;;;5.10;0.50;;;;;;;-143.29;100.00;62188.47;5070091;28;20036;-93
2023/10/15 09:38:31;;;;;;;3.58;0.65;;;;;;;-143.29;100.00;62188.47;5070654;28;20432;-93
2023/10/15 09:40:58;;;;;;;4.88;0.75;;;;;;;-143.29;100.00;62188.47;5066616;28;20465;-94
2023/10/15 09:43:25;;;;;;;4.05;0.90;;;;;;;-143.29;100.00;62188.47;5062824;28;20475;-93
2023/10/15 09:45:54;;;;;;;4.60;0.98;;;;;;;-143.29;100.00;62188.47;5063031;28;20025;-92
2023/10/15 09:48:24;;;;;;;3.08;1.20;;;;;;;-143.29;100.00;62188.47;5058351;28;20028;-93
2023/10/15 09:50:53;;;;;;;1.83;0.50;;;;;;;-143.29;100.00;62188.47;5065083;28;20486;-93
2023/10/15 09:53:21;;;;;;;4.38;0.70;;;;;;;-143.29;100.00;62188.47;5067852;28;20466;-93
2023/10/15 09:55:48;;;;;;;4.30;0.75;;;;;;;-143.29;100.00;62188.47;5068992;28;20037;-94
2023/10/15 09:58:15;;;;;;;6.72;0.70;;;;;;;-143.29;100.00;62188.47;5069237;28;20106;-93
2023/10/15 10:03:37;;;;;;;3.20;0.90;;;;;;;-143.29;100.00;62188.47;5094533;28;20503;-93
2023/10/15 10:06:22;;;;;;;4.82;0.60;;;;;;;-143.29;100.00;62188.47;5086630;28;20134;-93
2023/10/15 10:09:06;;;;;;;3.60;0.68;;;;;;;-143.29;100.00;62188.47;5053541;28;20464;-94
2023/10/15 10:12:11;;;;;;;4.65;0.77;;;;;;;-143.29;100.00;62188.47;5053400;28;20031;-93
2023/10/15 10:14:55;;;;;;;6.47;0.65;;;;;;;-143.29;100.00;62188.47;5070475;28;20036;-94
2023/10/15 10:17:22;;;;;;;3.97;0.73;;;;;;;-143.29;100.00;62188.47;5091967;28;20030;-93
2023/10/15 10:19:52;;;;;;;4.90;0.70;;;;;;;-143.29;100.00;62188.47;5091478;28;20236;-95
2023/10/15 10:22:28;;;;;;;2.53;0.80;;;;;;;-143.29;100.00;62188.47;5077328;28;20051;-93
2023/10/15 10:24:55;;;;;;;5.50;0.90;;;;;;;-143.29;100.00;62188.47;5079218;28;20478;-94
2023/10/15 10:27:20;;;;;;;4.95;0.90;;;;;;;-143.29;100.00;62188.47;5083273;28;20078;-94
2023/10/15 10:29:51;;;;;;;4.93;0.63;;;;;;;-143.29;100.00;62188.47;5085735;28;20024;-95
2023/10/15 10:32:17;;;;;;;1.92;0.40;;;;;;;-143.29;100.00;62188.47;5084410;28;20036;-94
2023/10/15 10:34:44;;;;;;;6.10;0.70;;;;;;;-143.29;100.00;62188.47;5073362;28;20029;-94
2023/10/15 10:37:20;;;;;;;5.07;0.70;;;;;;;-143.29;100.00;62188.47;5073380;28;20031;-94
2023/10/15 10:39:48;;;;;;;5.47;1.00;;;;;;;-143.29;100.00;62188.47;5076321;28;20436;-95
2023/10/15 10:42:23;;;;;;;4.43;0.73;;;;;;;-143.29;100.00;62188.47;5079759;28;20055;-94
2023/10/15 10:44:49;;;;;;;4.43;0.43;;;;;;;-143.29;100.00;62188.47;5085071;28;20035;-94
2023/10/15 10:47:21;;;;;;;5.85;1.38;;;;;;;-143.29;100.00;62188.47;5078308;28;20023;-94
2023/10/15 10:50:03;;;;;;;6.72;1.00;;;;;;;-143.29;100.00;62188.47;5077934;28;20024;-94
2023/10/15 10:52:34;;;;;;;;;;;;;;;-143.29;100.00;62188.47;5081281;28;20078;-95
2023/10/15 10:55:32;;;;;;;2.80;0.73;;;;;;;-143.29;100.00;62188.47;5053860;28;19962;-94
2023/10/15 10:58:00;;;;;;;4.85;0.80;;;;;;;-143.29;100.00;62188.47;5053959;28;20037;-94
2023/10/15 11:00:30;;;;;;;5.05;0.80;;;;;;;-143.29;100.00;62188.47;5053109;28;20311;-94
2023/10/15 11:02:57;;;;;;;6.88;1.10;;;;;;;-143.29;100.00;62188.47;5052846;28;20051;-94
2023/10/15 11:05:24;;;;;;;4.47;1.30;;;;;;;-143.29;100.00;62188.47;5081139;28;20028;-94
2023/10/15 11:07:49;;;;;;;4.07;0.88;;;;;;;-143.29;100.00;62188.47;5094003;28;20025;-94
2023/10/15 11:10:16;;;;;;;6.13;1.20;;;;;;;-143.29;100.00;62188.47;5094081;28;20030;-94
2023/10/15 11:12:45;;;;;;;3.60;0.80;;;;;;;-143.29;100.00;62188.47;5093910;28;20020;-94
2023/10/15 11:15:10;;;;;;;5.25;0.90;;;;;;;-143.29;100.00;62188.47;5094026;28;20052;-94
2023/10/15 11:17:36;;;;;;;4.40;0.95;;;;;;;-143.29;100.00;62188.47;5094027;28;20472;-95
2023/10/15 11:20:03;;;;;;;1.60;0.55;;;;;;;-143.29;100.00;62188.47;5087029;28;20035;-95
2023/10/15 11:22:29;;;;;;;4.63;0.85;;;;;;;-143.29;100.00;62188.47;5073200;28;20056;-95
2023/10/15 11:24:55;;;;;;;5.05;1.02;;;;;;;-143.29;100.00;62188.47;5072767;28;20067;-94
2023/10/15 11:27:21;;;;;;;4.22;1.38;;;;;;;-143.29;100.00;62188.47;5071726;28;20061;-95
2023/10/15 11:29:47;;;;;;;4.00;0.75;;;;;;;-143.29;100.00;62188.47;5071780;28;20025;-94
2023/10/15 11:32:12;;;;;;;4.20;0.68;;;;;;;-143.29;100.00;62188.47;5075300;28;20106;-95
2023/10/15 11:34:42;;;;;;;2.20;0.63;;;;;;;-143.29;100.00;62188.47;5072691;28;20075;-94